Time;durP1;ratioP1;P1;durP2;ratioP2;P2;SDS_P1;SDS_P2;PMS_P1;PMS_P2;Temp;Humidity;BMP_temperature;BMP_pressure;BME280_temperature;BME280_humidity;BME280_pressure;Samples;Min_cycle;Max_cycle;Signal;HPM_P1;HPM_P2
2023/08/23 00:01:56;;;;;;;6.00;4.40;;;21.70;23.40;;;;;;5075609;28;20404;-70
2023/08/23 00:04:22;;;;;;;6.07;5.47;;;21.60;23.90;;;;;;5076267;28;20522;-70
2023/08/23 00:06:48;;;;;;;6.23;4.67;;;21.60;24.20;;;;;;5075891;28;20162;-70
2023/08/23 00:09:16;;;;;;;5.20;4.67;;;21.50;24.70;;;;;;5076399;28;20205;-70
2023/08/23 00:11:42;;;;;;;5.13;4.50;;;21.50;24.50;;;;;;5075444;28;20400;-70
2023/08/23 00:14:07;;;;;;;6.10;4.80;;;21.40;24.80;;;;;;5075735;28;20416;-70
2023/08/23 00:16:33;;;;;;;7.47;4.70;;;21.40;25.30;;;;;;5074843;28;20190;-70
2023/08/23 00:18:58;;;;;;;4.47;3.97;;;21.40;25.30;;;;;;5074832;28;20181;-70
2023/08/23 00:21:24;;;;;;;5.33;4.53;;;21.40;25.40;;;;;;5074586;28;20234;-70
2023/08/23 00:23:49;;;;;;;5.63;4.97;;;21.20;26.00;;;;;;5074755;28;20205;-70
2023/08/23 00:26:15;;;;;;;7.30;5.27;;;21.20;26.10;;;;;;5073422;28;20270;-70
2023/08/23 00:28:41;;;;;;;5.87;5.37;;;21.20;26.10;;;;;;5074286;28;20194;-70
2023/08/23 00:31:07;;;;;;;6.23;4.60;;;21.20;26.00;;;;;;5074831;28;20185;-70
2023/08/23 00:33:32;;;;;;;6.77;5.67;;;21.20;26.00;;;;;;5074175;28;20416;-69
2023/08/23 00:35:58;;;;;;;5.23;4.47;;;21.20;26.00;;;;;;5074438;28;20509;-69
2023/08/23 00:38:24;;;;;;;6.10;5.30;;;21.20;26.30;;;;;;5073538;28;20269;-70
2023/08/23 00:40:49;;;;;;;6.17;5.03;;;21.10;26.50;;;;;;5074339;28;20177;-70
2023/08/23 00:43:15;;;;;;;5.93;5.10;;;21.10;26.20;;;;;;5074001;28;20166;-70
2023/08/23 00:45:42;;;;;;;5.00;4.50;;;21.10;26.20;;;;;;5074029;28;20300;-70
2023/08/23 00:48:10;;;;;;;6.90;5.67;;;21.10;26.60;;;;;;5074425;28;20206;-70
2023/08/23 00:50:37;;;;;;;5.87;5.27;;;21.00;26.50;;;;;;5074098;28;20477;-70
2023/08/23 00:53:04;;;;;;;6.00;5.30;;;21.00;26.80;;;;;;5073911;28;20404;-70
2023/08/23 00:55:30;;;;;;;5.90;4.77;;;20.90;26.70;;;;;;5073831;28;20439;-71
2023/08/23 00:57:57;;;;;;;6.77;4.40;;;21.00;26.70;;;;;;5073974;28;20405;-71
2023/08/23 01:00:23;;;;;;;9.00;4.53;;;20.90;26.40;;;;;;5074416;28;20663;-71
2023/08/23 01:02:48;;;;;;;6.03;5.47;;;20.90;26.50;;;;;;5073853;28;20777;-71
2023/08/23 01:05:16;;;;;;;6.37;4.47;;;20.90;26.70;;;;;;5074083;28;20436;-71
2023/08/23 01:07:58;;;;;;;5.40;4.77;;;20.80;26.60;;;;;;5074794;28;20198;-71
2023/08/23 01:10:47;;;;;;;6.70;4.70;;;20.80;26.70;;;;;;5074506;28;20481;-71
2023/08/23 01:13:39;;;;;;;6.60;3.93;;;20.90;25.80;;;;;;5074061;28;20963;-71
2023/08/23 01:16:10;;;;;;;5.80;4.77;;;20.80;25.80;;;;;;5074095;28;20447;-71
2023/08/23 01:18:36;;;;;;;5.17;4.47;;;20.80;26.10;;;;;;5073907;28;20408;-71
2023/08/23 01:21:03;;;;;;;5.87;3.97;;;20.80;24.90;;;;;;5073952;28;20446;-71
2023/08/23 01:23:30;;;;;;;5.47;4.50;;;20.70;25.70;;;;;;5074354;28;20408;-71
2023/08/23 01:25:55;;;;;;;7.33;4.03;;;20.80;25.60;;;;;;5073969;28;20953;-71
2023/08/23 01:28:21;;;;;;;6.90;4.17;;;20.80;25.40;;;;;;5073437;28;20459;-71
2023/08/23 01:30:49;;;;;;;8.17;4.30;;;20.70;25.70;;;;;;5073555;28;20166;-71
2023/08/23 01:33:28;;;;;;;7.03;4.30;;;20.70;25.70;;;;;;5073097;28;20166;-71
2023/08/23 01:36:09;;;;;;;6.73;4.30;;;20.80;25.80;;;;;;5073291;28;20424;-70
2023/08/23 01:38:35;;;;;;;5.23;4.23;;;20.70;25.50;;;;;;5073201;28;20412;-70
2023/08/23 01:41:02;;;;;;;5.43;4.00;;;20.70;25.70;;;;;;5073120;28;20412;-70
2023/08/23 01:43:28;;;;;;;5.57;4.97;;;20.60;25.70;;;;;;5072759;28;20413;-71
2023/08/23 01:45:53;;;;;;;6.70;4.90;;;20.60;25.60;;;;;;5114621;22;21255;-67
2023/08/23 01:48:19;;;;;;;4.90;4.40;;;20.60;25.70;;;;;;5113599;28;20283;-68
2023/08/23 01:50:45;;;;;;;8.60;5.07;;;20.60;25.60;;;;;;5112671;28;20199;-67
2023/08/23 01:53:10;;;;;;;4.37;3.80;;;20.60;25.70;;;;;;5113304;28;20169;-67
2023/08/23 01:55:36;;;;;;;10.43;4.90;;;20.50;25.60;;;;;;5113554;28;20234;-67
2023/08/23 01:58:01;;;;;;;5.43;4.70;;;20.50;26.10;;;;;;5113430;28;20187;-67
2023/08/23 02:00:27;;;;;;;6.83;4.63;;;20.40;26.10;;;;;;5113337;28;20168;-67
2023/08/23 02:02:52;;;;;;;6.90;4.40;;;20.40;26.60;;;;;;5113128;28;20237;-67
2023/08/23 02:05:18;;;;;;;5.97;5.37;;;20.40;26.80;;;;;;5113439;28;20234;-68
2023/08/23 02:07:43;;;;;;;6.03;4.57;;;20.40;25.80;;;;;;5113274;28;20211;-67
2023/08/23 02:10:09;;;;;;;7.37;5.43;;;20.40;26.10;;;;;;5113383;28;20202;-67
2023/08/23 02:12:34;;;;;;;5.13;4.63;;;20.40;25.50;;;;;;5113041;28;20180;-67
2023/08/23 02:15:00;;;;;;;5.50;4.10;;;20.30;25.90;;;;;;5113112;28;20257;-67
2023/08/23 02:17:25;;;;;;;5.00;4.50;;;20.30;26.00;;;;;;5113164;28;20225;-68
2023/08/23 02:19:51;;;;;;;6.90;4.90;;;20.30;26.00;;;;;;5113170;28;20257;-68
2023/08/23 02:22:16;;;;;;;6.63;4.40;;;20.30;26.40;;;;;;5112895;28;20208;-68
2023/08/23 02:24:42;;;;;;;6.20;5.60;;;20.20;26.70;;;;;;5113087;28;20258;-68
2023/08/23 02:27:07;;;;;;;4.70;4.20;;;20.20;26.90;;;;;;5113096;28;20176;-68
2023/08/23 02:29:33;;;;;;;6.63;6.00;;;20.20;26.80;;;;;;5112764;28;20191;-67
2023/08/23 02:31:59;;;;;;;8.43;5.70;;;20.20;26.60;;;;;;5112714;28;20639;-67
2023/08/23 02:34:24;;;;;;;6.07;5.10;;;20.20;26.80;;;;;;5112917;28;20200;-72
2023/08/23 02:36:50;;;;;;;7.60;4.77;;;20.20;26.30;;;;;;5112785;28;20193;-67
2023/08/23 02:39:16;;;;;;;6.60;4.30;;;20.20;26.00;;;;;;5112881;28;20180;-67
2023/08/23 02:41:42;;;;;;;5.23;4.43;;;20.20;25.90;;;;;;5094326;28;20426;-68
2023/08/23 02:44:07;;;;;;;6.00;4.60;;;20.10;25.90;;;;;;5112642;28;20233;-66
2023/08/23 02:46:33;;;;;;;7.13;4.47;;;20.10;26.00;;;;;;5112515;28;20586;-69
2023/08/23 02:48:58;;;;;;;5.60;4.17;;;20.10;26.70;;;;;;5094371;28;20204;-68
2023/08/23 02:51:24;;;;;;;9.70;4.83;;;20.10;26.10;;;;;;5112667;28;20180;-68
2023/08/23 02:53:50;;;;;;;5.30;4.37;;;20.20;25.60;;;;;;5112522;28;20164;-68
2023/08/23 02:56:15;;;;;;;4.97;4.30;;;20.10;25.90;;;;;;5112923;28;20193;-68
2023/08/23 02:58:41;;;;;;;5.50;4.47;;;20.10;25.40;;;;;;5112807;28;20688;-68
2023/08/23 03:01:06;;;;;;;4.50;3.63;;;20.10;25.30;;;;;;5112119;28;20188;-68
2023/08/23 03:03:32;;;;;;;5.60;4.03;;;20.10;25.30;;;;;;5112447;28;20176;-68
2023/08/23 03:05:58;;;;;;;6.77;3.50;;;20.10;25.80;;;;;;5112677;28;20279;-68
2023/08/23 03:08:25;;;;;;;5.63;4.70;;;20.00;25.90;;;;;;5112558;28;20208;-68
2023/08/23 03:10:51;;;;;;;10.40;5.63;;;20.00;26.40;;;;;;5112612;28;20437;-67
2023/08/23 03:13:17;;;;;;;4.10;3.50;;;20.00;26.70;;;;;;5112075;28;20446;-67
2023/08/23 03:15:42;;;;;;;5.93;5.33;;;19.90;26.70;;;;;;5112534;28;20449;-68
2023/08/23 03:18:08;;;;;;;5.23;4.73;;;19.90;27.00;;;;;;5112646;28;20313;-68
2023/08/23 03:20:34;;;;;;;6.67;4.67;;;19.90;27.00;;;;;;5112572;28;20568;-69
2023/08/23 03:22:59;;;;;;;8.60;5.90;;;19.90;27.50;;;;;;5112283;28;20268;-68
2023/08/23 03:25:25;;;;;;;6.10;4.83;;;19.80;27.30;;;;;;5112530;28;20199;-68
2023/08/23 03:27:54;;;;;;;7.13;4.07;;;19.90;27.30;;;;;;5112486;28;20196;-68
2023/08/23 03:30:19;;;;;;;6.70;4.70;;;19.80;27.00;;;;;;5112584;28;20224;-68
2023/08/23 03:32:45;;;;;;;5.00;4.20;;;19.80;27.00;;;;;;5112333;28;20417;-68
2023/08/23 03:35:11;;;;;;;7.30;5.07;;;19.70;27.40;;;;;;5112373;28;20189;-70
2023/08/23 03:37:37;;;;;;;5.50;4.80;;;19.80;28.10;;;;;;5112362;28;20173;-70
2023/08/23 03:40:05;;;;;;;6.90;5.07;;;19.70;27.20;;;;;;5094125;28;20176;-69
2023/08/23 03:42:31;;;;;;;4.93;3.90;;;19.70;27.20;;;;;;5111864;28;20196;-68
2023/08/23 03:44:57;;;;;;;6.30;5.07;;;19.70;27.70;;;;;;5112150;28;20406;-67
2023/08/23 03:47:22;;;;;;;5.47;4.47;;;19.70;27.90;;;;;;5112411;28;20643;-68
2023/08/23 03:49:48;;;;;;;5.10;4.57;;;19.60;28.20;;;;;;5094107;28;20641;-67
2023/08/23 03:52:14;;;;;;;6.40;4.63;;;19.60;28.50;;;;;;5111946;28;20179;-67
2023/08/23 03:54:40;;;;;;;5.97;5.47;;;19.60;27.90;;;;;;5112187;28;20405;-68
2023/08/23 03:57:06;;;;;;;8.03;4.37;;;19.70;27.70;;;;;;5111946;28;20398;-69
2023/08/23 03:59:31;;;;;;;7.37;4.70;;;19.70;26.90;;;;;;5093889;28;20238;-69
2023/08/23 04:01:57;;;;;;;6.40;4.47;;;19.80;26.70;;;;;;5111931;28;20200;-69
2023/08/23 04:04:23;;;;;;;4.90;4.07;;;19.70;26.80;;;;;;5093733;28;20710;-69
2023/08/23 04:06:48;;;;;;;6.57;4.87;;;19.70;27.20;;;;;;5112095;28;20223;-69
2023/08/23 04:09:14;;;;;;;9.13;5.67;;;19.70;27.30;;;;;;5093190;28;20618;-69
2023/08/23 04:11:40;;;;;;;5.50;4.20;;;19.70;26.90;;;;;;5111842;28;20171;-69
2023/08/23 04:14:06;;;;;;;7.33;5.27;;;19.70;26.70;;;;;;5113466;28;20602;-69
2023/08/23 04:16:32;;;;;;;6.60;4.30;;;19.70;27.20;;;;;;5115545;28;20517;-69
2023/08/23 04:18:57;;;;;;;5.47;4.70;;;19.70;26.90;;;;;;5115747;28;20445;-69
2023/08/23 04:21:24;;;;;;;6.70;6.00;;;19.60;26.70;;;;;;5115329;28;20183;-69
2023/08/23 04:23:51;;;;;;;5.33;4.20;;;19.70;26.40;;;;;;5115331;28;20260;-69
2023/08/23 04:26:16;;;;;;;5.20;4.20;;;19.60;26.70;;;;;;5115372;28;20441;-69
2023/08/23 04:28:42;;;;;;;7.13;5.20;;;19.60;26.30;;;;;;5115565;28;20454;-70
2023/08/23 04:31:08;;;;;;;5.43;4.53;;;19.60;26.40;;;;;;5097306;28;20537;-70
2023/08/23 04:33:35;;;;;;;7.13;4.90;;;19.60;27.00;;;;;;5114989;28;20183;-70
2023/08/23 04:36:02;;;;;;;5.50;4.10;;;19.60;27.50;;;;;;5115111;28;20248;-70
2023/08/23 04:38:28;;;;;;;5.27;4.53;;;19.70;27.40;;;;;;5115381;28;20406;-69
2023/08/23 04:41:06;;;;;;;7.63;5.13;;;19.70;26.90;;;;;;5115103;28;20470;-70
2023/08/23 04:43:33;;;;;;;10.17;5.17;;;19.70;26.70;;;;;;5114778;28;20218;-72
2023/08/23 04:45:58;;;;;;;8.10;5.13;;;19.80;26.50;;;;;;5115005;28;20453;-68
2023/08/23 04:48:26;;;;;;;6.57;4.70;;;19.80;26.70;;;;;;5114892;28;20460;-70
2023/08/23 04:50:56;;;;;;;9.47;5.43;;;19.80;26.60;;;;;;5114845;28;20410;-71
2023/08/23 04:53:23;;;;;;;9.70;4.40;;;19.80;26.60;;;;;;5114652;28;20406;-71
2023/08/23 04:55:49;;;;;;;5.80;5.07;;;19.80;27.00;;;;;;5096751;28;20482;-71
2023/08/23 04:58:15;;;;;;;8.47;5.30;;;19.80;26.80;;;;;;5114803;28;20424;-71
2023/08/23 05:00:41;;;;;;;5.40;4.50;;;19.90;26.10;;;;;;5096393;28;20505;-71
2023/08/23 05:03:06;;;;;;;11.07;5.00;;;19.90;26.30;;;;;;5114377;28;20950;-71
2023/08/23 05:05:33;;;;;;;7.10;4.80;;;19.90;26.30;;;;;;5114578;28;20275;-71
2023/08/23 05:07:59;;;;;;;7.50;6.00;;;20.00;26.10;;;;;;5114417;28;20284;-71
2023/08/23 05:10:24;;;;;;;5.93;4.60;;;20.10;25.30;;;;;;5114504;28;20434;-71
2023/08/23 05:12:51;;;;;;;8.73;5.00;;;20.20;24.70;;;;;;5114199;28;20536;-71
2023/08/23 05:15:17;;;;;;;7.07;4.87;;;20.30;23.80;;;;;;5114194;28;20294;-71
2023/08/23 05:17:43;;;;;;;4.60;4.20;;;20.40;23.30;;;;;;5114307;28;20501;-71
2023/08/23 05:20:09;;;;;;;7.90;5.40;;;20.50;22.20;;;;;;5114197;28;20256;-72
2023/08/23 05:22:34;;;;;;;6.30;4.97;;;20.60;21.90;;;;;;5113993;28;20169;-72
2023/08/23 05:25:00;;;;;;;9.00;4.70;;;20.70;21.40;;;;;;5114035;28;20414;-69
2023/08/23 05:27:26;;;;;;;7.10;5.10;;;20.80;21.50;;;;;;5095735;28;20308;-70
2023/08/23 05:29:51;;;;;;;14.13;5.20;;;20.90;20.50;;;;;;5113923;28;20261;-70
2023/08/23 05:32:17;;;;;;;8.27;4.97;;;21.10;20.20;;;;;;5113834;28;20176;-71
2023/08/23 05:34:42;;;;;;;8.83;5.07;;;21.30;18.90;;;;;;5114195;28;20171;-71
2023/08/23 05:37:08;;;;;;;7.03;4.30;;;21.60;17.60;;;;;;5113813;28;20256;-70
2023/08/23 05:39:33;;;;;;;15.30;7.00;;;21.90;15.50;;;;;;5095657;28;20241;-71
2023/08/23 05:41:59;;;;;;;23.17;9.00;;;23.00;11.80;;;;;;5113562;28;20537;-71
2023/08/23 05:44:24;;;;;;;6.90;4.97;;;24.80;5.70;;;;;;5113700;28;20177;-71
2023/08/23 05:46:50;;;;;;;4.93;4.20;;;26.40;1.00;;;;;;5113560;28;20587;-72
2023/08/23 05:49:16;;;;;;;6.00;4.47;;;27.80;1.00;;;;;;5113692;28;20661;-72
2023/08/23 05:51:42;;;;;;;5.43;4.77;;;28.90;1.00;;;;;;5113302;28;20229;-72
2023/08/23 05:54:07;;;;;;;6.50;4.60;;;28.90;1.00;;;;;;5095156;28;20414;-72
2023/08/23 05:56:33;;;;;;;28.77;10.97;;;29.20;1.00;;;;;;5095192;28;20204;-70
2023/08/23 05:58:59;;;;;;;9.60;6.17;;;29.90;1.00;;;;;;5113471;28;20172;-71
2023/08/23 06:01:24;;;;;;;5.87;5.30;;;30.50;1.00;;;;;;5113488;28;20179;-71
2023/08/23 06:03:50;;;;;;;5.30;4.80;;;31.30;1.00;;;;;;5113259;28;20199;-70
2023/08/23 06:06:15;;;;;;;6.00;5.50;;;31.20;1.00;;;;;;5113459;28;20535;-71
2023/08/23 06:08:41;;;;;;;8.80;5.73;;;30.60;1.00;;;;;;5095060;28;20553;-72
2023/08/23 06:11:07;;;;;;;5.07;4.67;;;31.00;1.00;;;;;;5113385;28;20171;-71
2023/08/23 06:13:33;;;;;;;5.33;4.90;;;32.00;1.00;;;;;;5113035;28;20649;-70
2023/08/23 06:15:58;;;;;;;6.47;5.50;;;33.00;1.00;;;;;;5113144;28;20188;-70
2023/08/23 06:18:24;;;;;;;5.80;5.30;;;33.60;1.00;;;;;;5113316;28;20406;-71
2023/08/23 06:20:49;;;;;;;10.40;6.67;;;34.40;1.00;;;;;;5113139;28;20173;-70
2023/08/23 06:23:15;;;;;;;14.30;6.90;;;34.90;1.00;;;;;;5112876;28;20590;-71
2023/08/23 06:25:41;;;;;;;7.10;6.40;;;35.20;1.00;;;;;;5113085;28;20714;-70
2023/08/23 06:28:08;;;;;;;8.20;7.50;;;34.70;1.00;;;;;;5113006;28;20457;-71
2023/08/23 06:30:36;;;;;;;6.53;5.93;;;33.90;1.00;;;;;;5094692;28;20418;-70
2023/08/23 06:33:02;;;;;;;7.00;6.40;;;34.00;1.00;;;;;;5112493;28;20407;-71
2023/08/23 06:35:28;;;;;;;6.90;5.90;;;35.30;1.00;;;;;;5112471;28;20872;-69
2023/08/23 06:37:53;;;;;;;6.40;5.90;;;35.60;1.00;;;;;;5112317;28;20255;-70
2023/08/23 06:40:19;;;;;;;6.20;5.57;;;34.90;1.00;;;;;;5094438;28;20180;-70
2023/08/23 06:42:44;;;;;;;9.80;6.10;;;33.90;1.00;;;;;;5112400;28;20186;-69
2023/08/23 06:45:10;;;;;;;8.83;6.20;;;32.90;1.00;;;;;;5112482;28;20262;-68
2023/08/23 06:47:37;;;;;;;6.23;5.63;;;32.40;1.00;;;;;;5094539;28;20204;-69
2023/08/23 06:50:03;;;;;;;6.90;6.40;;;31.50;1.00;;;;;;5094541;28;20783;-69
2023/08/23 06:52:28;;;;;;;7.10;6.40;;;31.00;1.00;;;;;;5112298;28;20394;-70
2023/08/23 06:54:54;;;;;;;5.67;5.17;;;30.50;1.00;;;;;;5106492;28;20215;-70
2023/08/23 06:57:28;;;;;;;9.07;6.67;;;29.90;1.00;;;;;;5108329;28;20172;-70
2023/08/23 06:59:57;;;;;;;5.57;5.10;;;29.10;1.00;;;;;;5090450;28;20188;-71
2023/08/23 07:02:24;;;;;;;6.53;5.93;;;28.40;1.00;;;;;;5105233;28;20439;-70
2023/08/23 07:04:51;;;;;;;6.70;5.70;;;29.40;1.00;;;;;;5104263;28;20411;-70
2023/08/23 07:07:18;;;;;;;10.57;9.27;;;29.90;1.00;;;;;;5081338;28;20413;-71
2023/08/23 07:09:43;;;;;;;6.23;5.63;;;29.40;1.00;;;;;;5108171;28;20418;-70
2023/08/23 07:12:09;;;;;;;6.20;5.60;;;29.00;1.00;;;;;;5097311;28;20427;-71
2023/08/23 07:14:34;;;;;;;5.83;5.37;;;28.50;1.00;;;;;;5106572;28;20191;-70
2023/08/23 07:17:00;;;;;;;7.27;5.63;;;27.90;1.00;;;;;;5108001;28;20185;-70
2023/08/23 07:19:25;;;;;;;6.47;5.77;;;27.50;1.00;;;;;;5108621;28;20188;-71
2023/08/23 07:21:51;;;;;;;5.40;4.67;;;27.30;1.00;;;;;;5107742;28;20184;-71
2023/08/23 07:24:17;;;;;;;8.93;8.10;;;27.30;1.00;;;;;;5107997;28;20191;-70
2023/08/23 07:26:42;;;;;;;5.77;5.37;;;27.30;1.00;;;;;;5092590;28;20234;-70
2023/08/23 07:29:09;;;;;;;8.77;6.57;;;27.80;1.00;;;;;;5104487;28;20197;-71
2023/08/23 07:31:34;;;;;;;8.20;6.17;;;29.50;1.00;;;;;;5089128;28;20623;-70
2023/08/23 07:34:00;;;;;;;6.10;5.60;;;30.90;1.00;;;;;;5087714;28;20458;-69
2023/08/23 07:36:25;;;;;;;6.60;6.00;;;31.30;1.00;;;;;;5069347;28;20214;-70
2023/08/23 07:38:51;;;;;;;7.50;6.70;;;31.20;1.00;;;;;;5069880;28;20246;-70
2023/08/23 07:41:16;;;;;;;7.27;6.00;;;31.30;1.00;;;;;;5087930;28;20182;-70
2023/08/23 07:43:42;;;;;;;10.80;6.93;;;31.90;1.00;;;;;;5087454;28;20665;-70
2023/08/23 07:46:08;;;;;;;11.47;8.20;;;31.40;1.00;;;;;;5161022;22;20599;-70
2023/08/23 07:48:33;;;;;;;9.90;6.60;;;31.00;1.00;;;;;;5048638;28;20608;-70
2023/08/23 07:51:01;;;;;;;8.80;6.00;;;30.90;1.00;;;;;;5051110;28;20182;-69
2023/08/23 07:53:28;;;;;;;6.87;6.20;;;30.50;1.00;;;;;;5049911;28;20210;-69
2023/08/23 07:55:54;;;;;;;9.37;7.60;;;30.00;1.00;;;;;;5066788;28;20440;-70
2023/08/23 07:58:19;;;;;;;10.37;6.13;;;29.70;1.00;;;;;;5071889;28;20836;-75
2023/08/23 08:00:45;;;;;;;18.37;6.20;;;29.70;1.00;;;;;;5053904;28;20198;-71
2023/08/23 08:03:10;;;;;;;7.00;6.40;;;29.90;1.00;;;;;;5089304;28;20185;-70
2023/08/23 08:05:37;;;;;;;6.20;5.60;;;30.00;1.00;;;;;;5089858;28;20193;-70
2023/08/23 08:08:04;;;;;;;7.40;6.70;;;30.30;1.00;;;;;;5071373;28;20213;-70
2023/08/23 08:10:30;;;;;;;10.17;6.30;;;30.60;1.00;;;;;;5075778;28;20552;-71
2023/08/23 08:12:55;;;;;;;6.40;5.63;;;30.30;1.00;;;;;;5059252;28;20412;-70
2023/08/23 08:15:21;;;;;;;6.50;5.90;;;30.00;1.00;;;;;;5076436;28;20194;-71
2023/08/23 08:17:50;;;;;;;6.17;5.57;;;30.10;1.00;;;;;;5076623;28;20170;-69
2023/08/23 08:20:17;;;;;;;6.27;5.77;;;29.50;1.00;;;;;;5075429;28;20170;-68
2023/08/23 08:22:42;;;;;;;12.60;6.57;;;29.40;1.00;;;;;;5075343;28;20777;-69
2023/08/23 08:25:08;;;;;;;7.10;6.40;;;32.50;1.00;;;;;;5076384;28;20412;-70
2023/08/23 08:27:34;;;;;;;6.67;6.13;;;35.00;1.00;;;;;;5077199;28;20189;-70
2023/08/23 08:30:00;;;;;;;28.40;13.37;;;35.70;1.00;;;;;;5077232;28;20822;-70
2023/08/23 08:32:27;;;;;;;8.60;7.40;;;34.20;1.00;;;;;;5076528;28;20423;-69
2023/08/23 08:34:52;;;;;;;6.70;6.20;;;34.30;1.00;;;;;;5077176;28;20185;-69
2023/08/23 08:37:19;;;;;;;8.27;7.53;;;36.10;1.00;;;;;;5076754;28;20424;-69
2023/08/23 08:39:44;;;;;;;7.47;6.87;;;36.10;1.00;;;;;;5075932;28;20631;-70
2023/08/23 08:42:10;;;;;;;6.20;5.67;;;35.50;1.00;;;;;;5074341;28;20415;-71
2023/08/23 08:44:36;;;;;;;7.03;6.43;;;35.70;1.00;;;;;;5070561;28;20235;-71
2023/08/23 08:47:02;;;;;;;6.43;5.93;;;34.80;1.00;;;;;;5070038;28;20974;-71
2023/08/23 08:49:27;;;;;;;6.83;6.23;;;34.00;1.00;;;;;;5069857;28;20213;-71
2023/08/23 08:51:58;;;;;;;7.07;6.37;;;33.30;1.00;;;;;;5070662;28;20277;-70
2023/08/23 08:54:24;;;;;;;6.77;6.17;;;32.90;1.00;;;;;;5052023;28;20182;-71
2023/08/23 08:56:51;;;;;;;8.40;6.40;;;32.20;1.00;;;;;;5051706;28;21040;-70
2023/08/23 08:59:17;;;;;;;9.53;6.20;;;32.10;1.00;;;;;;5069747;28;20424;-71
2023/08/23 09:01:44;;;;;;;31.77;10.37;;;31.80;1.00;;;;;;5069563;28;20918;-70
2023/08/23 09:04:11;;;;;;;7.43;6.83;;;31.80;1.00;;;;;;5070067;28;20921;-70
2023/08/23 09:06:37;;;;;;;10.70;7.20;;;31.50;1.00;;;;;;5070345;28;20902;-71
2023/08/23 09:09:03;;;;;;;6.47;5.87;;;31.50;1.00;;;;;;5069711;28;20994;-70
2023/08/23 09:11:30;;;;;;;10.00;7.60;;;31.30;1.00;;;;;;5069245;28;20499;-71
2023/08/23 09:13:55;;;;;;;7.07;6.40;;;30.90;1.00;;;;;;5070103;28;20446;-71
2023/08/23 09:16:24;;;;;;;6.37;5.77;;;30.50;1.00;;;;;;5051449;28;20640;-70
2023/08/23 09:18:49;;;;;;;6.37;5.77;;;30.10;1.00;;;;;;5069422;28;20213;-71
2023/08/23 09:21:15;;;;;;;6.80;6.20;;;30.10;1.00;;;;;;5069894;28;20936;-71
2023/08/23 09:23:41;;;;;;;5.80;5.30;;;30.00;1.00;;;;;;5069403;28;20794;-71
2023/08/23 09:26:07;;;;;;;7.10;6.00;;;30.10;1.00;;;;;;5069258;28;20209;-70
2023/08/23 09:28:33;;;;;;;5.53;4.97;;;30.00;1.00;;;;;;5069778;28;20202;-70
2023/08/23 09:30:59;;;;;;;7.10;5.90;;;30.40;1.00;;;;;;5069286;28;20447;-70
2023/08/23 09:33:25;;;;;;;7.83;6.80;;;30.80;1.00;;;;;;5073239;28;20185;-70
2023/08/23 09:35:51;;;;;;;6.03;5.57;;;31.00;1.00;;;;;;5070199;28;20436;-69
2023/08/23 09:38:21;;;;;;;9.20;6.67;;;30.40;1.00;;;;;;5073349;28;20308;-70
2023/08/23 09:40:48;;;;;;;7.50;6.57;;;30.10;1.00;;;;;;5072234;28;20423;-70
2023/08/23 09:43:16;;;;;;;7.63;6.47;;;30.30;1.00;;;;;;5072460;28;20420;-71
2023/08/23 09:45:41;;;;;;;7.47;6.53;;;30.80;1.00;;;;;;5072924;28;20466;-70
2023/08/23 09:48:10;;;;;;;6.90;6.30;;;30.90;1.00;;;;;;5073080;28;20464;-70
2023/08/23 09:50:36;;;;;;;6.60;6.03;;;31.10;1.00;;;;;;5073131;28;20232;-69
2023/08/23 09:53:04;;;;;;;6.53;5.93;;;31.00;1.00;;;;;;5072930;28;20806;-69
2023/08/23 09:55:32;;;;;;;6.80;6.17;;;30.60;1.00;;;;;;5072947;28;20444;-69
2023/08/23 09:58:00;;;;;;;7.80;6.20;;;30.40;1.00;;;;;;5073144;28;20435;-70
2023/08/23 10:00:27;;;;;;;5.80;5.20;;;30.20;1.00;;;;;;5073264;28;20424;-70
2023/08/23 10:02:53;;;;;;;6.50;5.90;;;30.20;1.00;;;;;;5076440;28;20806;-70
2023/08/23 10:05:20;;;;;;;7.90;7.20;;;30.30;1.00;;;;;;5089021;28;20865;-70
2023/08/23 10:07:46;;;;;;;6.13;5.63;;;30.40;1.00;;;;;;5068524;28;20503;-70
2023/08/23 10:10:12;;;;;;;6.20;5.63;;;30.50;1.00;;;;;;5055502;28;20835;-70
2023/08/23 10:12:41;;;;;;;15.10;6.33;;;30.40;1.00;;;;;;5064533;28;20511;-70
2023/08/23 10:15:10;;;;;;;7.30;5.60;;;30.40;1.00;;;;;;5067547;28;20244;-70
2023/08/23 10:17:36;;;;;;;5.50;5.10;;;30.70;1.00;;;;;;5068755;28;20416;-71
2023/08/23 10:20:07;;;;;;;5.80;5.20;;;30.80;1.00;;;;;;5050987;28;20940;-69
2023/08/23 10:22:33;;;;;;;6.30;5.80;;;31.10;1.00;;;;;;5053464;28;20431;-70
2023/08/23 10:24:59;;;;;;;6.00;5.13;;;30.50;1.00;;;;;;5072681;28;20859;-70
2023/08/23 10:27:25;;;;;;;9.10;5.90;;;30.40;1.00;;;;;;5045259;28;20445;-71
2023/08/23 10:29:51;;;;;;;5.77;5.33;;;30.60;1.00;;;;;;5052441;28;20716;-72
2023/08/23 10:32:17;;;;;;;6.97;5.83;;;31.20;1.00;;;;;;5052766;28;20439;-70
2023/08/23 10:34:43;;;;;;;7.00;6.40;;;31.40;1.00;;;;;;5060134;28;20424;-71
2023/08/23 10:37:19;;;;;;;9.93;6.40;;;31.70;1.00;;;;;;5071810;28;20870;-71
2023/08/23 10:39:53;;;;;;;5.70;5.20;;;32.00;1.00;;;;;;5072379;28;20235;-71
2023/08/23 10:42:20;;;;;;;7.90;6.67;;;31.40;1.00;;;;;;5072031;28;20577;-71
2023/08/23 10:45:04;;;;;;;7.20;5.90;;;31.50;1.00;;;;;;5072776;28;20503;-70
2023/08/23 10:47:35;;;;;;;6.70;6.20;;;31.50;1.00;;;;;;5072948;28;20811;-69
2023/08/23 10:50:02;;;;;;;6.60;6.07;;;31.40;1.00;;;;;;5072499;28;20800;-69
2023/08/23 10:52:28;;;;;;;5.90;5.40;;;31.10;1.00;;;;;;5072272;28;20419;-68
2023/08/23 10:54:54;;;;;;;6.30;5.33;;;30.90;1.00;;;;;;5072573;28;20404;-68
2023/08/23 10:57:19;;;;;;;6.30;5.83;;;30.60;1.00;;;;;;5056393;28;20218;-68
2023/08/23 10:59:45;;;;;;;6.83;6.27;;;30.50;1.00;;;;;;5060369;28;20497;-68
2023/08/23 11:02:11;;;;;;;5.77;5.27;;;30.50;1.00;;;;;;5072141;28;20272;-68
2023/08/23 11:04:37;;;;;;;7.20;6.43;;;30.40;1.00;;;;;;5073012;28;20190;-68
2023/08/23 11:07:03;;;;;;;6.43;5.83;;;30.40;1.00;;;;;;5072994;28;20436;-69
2023/08/23 11:09:28;;;;;;;5.77;5.37;;;30.40;1.00;;;;;;5072558;28;20201;-68
2023/08/23 11:11:54;;;;;;;6.40;5.80;;;30.30;1.00;;;;;;5072421;28;20271;-69
2023/08/23 11:14:19;;;;;;;5.43;5.03;;;30.60;1.00;;;;;;5072256;28;20193;-68
2023/08/23 11:16:45;;;;;;;8.10;5.67;;;30.90;1.00;;;;;;5072003;28;20201;-68
2023/08/23 11:19:12;;;;;;;6.10;5.50;;;30.90;1.00;;;;;;5073022;28;20209;-69
2023/08/23 11:21:39;;;;;;;6.10;5.70;;;30.90;1.00;;;;;;5072466;28;20585;-69
2023/08/23 11:24:05;;;;;;;6.70;5.97;;;30.80;1.00;;;;;;5076381;28;20548;-69
2023/08/23 11:26:37;;;;;;;5.70;5.23;;;31.00;1.00;;;;;;5059734;28;20443;-69
2023/08/23 11:29:05;;;;;;;5.97;5.43;;;31.30;1.00;;;;;;5077401;28;20546;-69
2023/08/23 11:31:35;;;;;;;6.20;5.60;;;31.00;1.00;;;;;;5077554;28;20485;-69
2023/08/23 11:34:06;;;;;;;6.30;5.70;;;30.80;1.00;;;;;;5077054;28;20422;-69
2023/08/23 11:36:37;;;;;;;7.57;6.90;;;30.90;1.00;;;;;;5076574;28;20452;-68
2023/08/23 11:39:06;;;;;;;5.90;5.50;;;30.70;1.00;;;;;;5076636;28;20447;-68
2023/08/23 11:41:33;;;;;;;7.90;7.20;;;30.70;1.00;;;;;;5076596;28;20443;-69
2023/08/23 11:44:06;;;;;;;10.83;6.23;;;30.90;1.00;;;;;;5076411;28;20431;-69
2023/08/23 11:46:34;;;;;;;6.60;6.03;;;31.10;1.00;;;;;;5076381;28;20456;-69
2023/08/23 11:49:03;;;;;;;6.87;6.27;;;31.30;1.00;;;;;;5076456;28;20475;-69
2023/08/23 11:51:40;;;;;;;6.70;6.20;;;31.40;1.00;;;;;;5076084;28;20408;-69
2023/08/23 11:54:08;;;;;;;6.60;5.97;;;31.40;1.00;;;;;;5076180;28;20427;-69
2023/08/23 11:56:34;;;;;;;7.03;6.10;;;31.60;1.00;;;;;;5076246;28;20450;-69
2023/08/23 11:58:59;;;;;;;6.73;6.23;;;31.40;1.00;;;;;;5076225;28;20527;-71
2023/08/23 12:01:25;;;;;;;10.87;7.47;;;31.50;1.00;;;;;;5074754;28;20185;-71
2023/08/23 12:03:51;;;;;;;8.27;7.47;;;31.60;1.00;;;;;;5074692;28;20239;-71
2023/08/23 12:06:17;;;;;;;8.83;6.23;;;31.60;1.00;;;;;;5075623;28;20284;-71
2023/08/23 12:08:42;;;;;;;6.87;6.27;;;31.50;1.00;;;;;;5076413;28;20550;-75
2023/08/23 12:11:08;;;;;;;7.27;6.17;;;31.70;1.00;;;;;;5078773;28;20670;-71
2023/08/23 12:13:35;;;;;;;9.50;6.30;;;31.80;1.00;;;;;;5075431;28;20178;-74
2023/08/23 12:16:01;;;;;;;12.23;8.50;;;31.80;1.00;;;;;;5075987;28;20224;-71
2023/08/23 12:18:26;;;;;;;6.87;6.33;;;31.80;1.00;;;;;;5076924;28;20831;-71
2023/08/23 12:20:52;;;;;;;6.70;6.10;;;31.80;1.00;;;;;;5074087;28;20182;-70
2023/08/23 12:23:17;;;;;;;6.60;5.90;;;31.80;1.00;;;;;;5070299;28;20191;-69
2023/08/23 12:25:43;;;;;;;7.33;6.63;;;31.80;1.00;;;;;;5064745;28;20206;-70
2023/08/23 12:28:08;;;;;;;5.80;5.20;;;31.90;1.00;;;;;;5074933;28;20730;-70
2023/08/23 12:30:34;;;;;;;19.73;9.07;;;32.10;1.00;;;;;;5057521;28;20265;-69
2023/08/23 12:33:00;;;;;;;7.13;6.43;;;32.20;1.00;;;;;;5055821;28;20324;-71
2023/08/23 12:35:26;;;;;;;10.17;7.70;;;32.10;1.00;;;;;;5055872;28;20201;-70
2023/08/23 12:37:51;;;;;;;7.13;6.43;;;32.10;1.00;;;;;;5093464;28;20276;-71
2023/08/23 12:40:17;;;;;;;6.97;6.40;;;31.90;1.00;;;;;;5072270;28;20462;-71
2023/08/23 12:42:42;;;;;;;7.27;6.60;;;31.90;1.00;;;;;;5053918;28;20560;-71
2023/08/23 12:45:08;;;;;;;8.30;7.57;;;32.00;1.00;;;;;;5072428;28;20677;-72
2023/08/23 12:47:34;;;;;;;6.67;6.07;;;31.90;1.00;;;;;;5071348;28;20202;-69